createdAt,value
2023-04-12T03:50:17.323Z,86
2023-04-12T03:52:08.412Z,86
2023-04-12T03:53:08.493Z,86
2023-04-12T03:54:08.800Z,86
2023-04-12T03:55:08.802Z,86
2023-04-12T03:56:09.040Z,86
2023-04-12T03:57:08.266Z,86
2023-04-12T03:58:08.268Z,86
2023-04-12T03:59:08.622Z,86
2023-04-12T04:00:08.963Z,86
2023-04-12T04:01:08.920Z,86
2023-04-12T04:02:09.367Z,86
2023-04-12T04:03:08.411Z,86
2023-04-12T04:04:09.756Z,86
2023-04-12T04:05:09.062Z,86
2023-04-12T04:06:08.723Z,86
2023-04-12T04:11:11.044Z,86
2023-04-12T04:13:08.819Z,86
2023-04-12T04:14:08.230Z,86
2023-04-12T04:15:08.716Z,86
2023-04-12T04:16:09.363Z,86
2023-04-12T04:20:08.407Z,86
2023-04-12T04:21:08.331Z,86
2023-04-12T04:22:08.928Z,86
2023-04-12T04:23:09.049Z,86
2023-04-12T04:24:08.115Z,86
2023-04-12T04:25:08.647Z,86
2023-04-12T04:26:08.778Z,86
2023-04-12T04:27:09.082Z,86
2023-04-12T04:28:08.230Z,86
2023-04-12T04:29:08.470Z,86
2023-04-12T04:30:08.730Z,86
2023-04-12T04:31:09.076Z,86
2023-04-12T04:32:08.424Z,86
2023-04-12T04:33:08.776Z,86
2023-04-12T04:34:10.122Z,86
2023-04-12T04:36:09.090Z,86
2023-04-12T04:37:08.108Z,86
2023-04-12T04:38:08.245Z,86
2023-04-12T04:39:08.576Z,86
2023-04-12T04:40:09.041Z,86
2023-04-12T04:41:08.257Z,86
2023-04-12T04:42:08.494Z,86
2023-04-12T04:43:10.719Z,86
2023-04-12T04:44:09.087Z,86
2023-04-12T04:47:08.479Z,86
2023-04-12T04:48:09.283Z,86
2023-04-12T04:49:09.085Z,86
2023-04-12T04:51:09.155Z,87
2023-04-12T04:52:08.722Z,86
2023-04-12T04:53:09.077Z,87
2023-04-12T04:54:08.225Z,87
2023-04-12T04:55:13.876Z,87
2023-04-12T04:56:08.483Z,87
2023-04-12T04:58:08.248Z,87
2023-04-12T04:59:09.134Z,87
2023-04-12T05:00:08.875Z,87
2023-04-12T05:01:08.819Z,87
2023-04-12T05:02:09.286Z,87
2023-04-12T05:06:08.969Z,87
2023-04-12T05:07:08.153Z,87
2023-04-12T05:08:08.171Z,87
2023-04-12T05:09:08.550Z,87
2023-04-12T05:10:08.808Z,87
2023-04-12T05:11:08.754Z,87
2023-04-12T05:12:09.158Z,87
2023-04-12T05:13:08.400Z,87
2023-04-12T05:14:09.364Z,87
2023-04-12T05:15:16.057Z,87
2023-04-12T05:17:08.561Z,87
2023-04-12T05:18:09.114Z,87
2023-04-12T05:28:08.284Z,87
2023-04-12T05:29:08.732Z,87
2023-04-12T05:30:08.980Z,87
2023-04-12T05:31:08.794Z,87
2023-04-12T05:32:08.757Z,87
2023-04-12T05:34:08.308Z,87
2023-04-12T05:35:08.486Z,87
2023-04-12T05:36:08.833Z,87
2023-04-12T05:39:08.273Z,87
2023-04-12T05:40:08.655Z,87
2023-04-12T05:41:08.612Z,87
2023-04-12T05:42:08.801Z,87
2023-04-12T05:43:09.009Z,87
2023-04-12T05:44:08.105Z,87
2023-04-12T05:45:08.698Z,87
2023-04-12T05:46:08.734Z,87
2023-04-12T05:49:08.411Z,87
2023-04-12T05:50:11.061Z,87
2023-04-12T05:51:08.908Z,87
2023-04-12T05:52:09.187Z,87
2023-04-12T05:53:08.338Z,88
2023-04-12T05:54:08.549Z,87
2023-04-12T05:55:08.742Z,87
2023-04-12T05:56:09.138Z,87
2023-04-12T05:57:08.204Z,87
2023-04-12T05:58:08.598Z,87
2023-04-12T05:59:08.747Z,87
2023-04-12T06:00:09.040Z,87
2023-04-12T06:01:08.273Z,87
2023-04-12T06:02:08.804Z,87
2023-04-12T06:03:08.978Z,87
2023-04-12T06:04:09.803Z,87
2023-04-12T06:05:08.554Z,87
2023-04-12T06:06:08.473Z,87
2023-04-12T06:07:08.852Z,87
2023-04-12T06:08:09.088Z,87
2023-04-12T06:09:08.254Z,87
2023-04-12T06:10:08.626Z,87
2023-04-12T06:11:09.148Z,87
2023-04-12T06:12:08.324Z,87
2023-04-12T06:13:08.658Z,87
2023-04-12T06:14:10.599Z,87
2023-04-12T06:15:08.440Z,87
2023-04-12T06:16:08.227Z,87
2023-04-12T06:17:08.351Z,87
2023-04-12T06:20:08.349Z,87
2023-04-12T06:21:08.432Z,87
2023-04-12T06:22:08.589Z,87
2023-04-12T06:23:08.772Z,87
2023-04-12T06:24:09.112Z,87
2023-04-12T06:25:08.578Z,87
2023-04-12T06:26:08.392Z,87
2023-04-12T06:27:09.084Z,87
2023-04-12T06:28:08.323Z,87
2023-04-12T06:29:08.450Z,87
2023-04-12T06:30:08.753Z,87
2023-04-12T06:31:08.493Z,87
2023-04-12T06:32:09.115Z,87
2023-04-12T06:33:08.165Z,87
2023-04-12T06:34:08.558Z,87
2023-04-12T06:35:08.783Z,87
2023-04-12T06:36:08.991Z,87
2023-04-12T06:37:09.040Z,87
2023-04-12T06:39:08.767Z,87
2023-04-12T06:40:08.929Z,87
2023-04-12T06:41:08.793Z,87
2023-04-12T06:42:08.938Z,87
2023-04-12T06:43:08.323Z,87
2023-04-12T06:44:08.558Z,87
2023-04-12T06:45:08.761Z,87
2023-04-12T06:46:08.077Z,87
2023-04-12T06:47:08.593Z,87
2023-04-12T06:48:08.721Z,87
2023-04-12T06:49:09.052Z,87
2023-04-12T06:50:08.102Z,87
2023-04-12T06:53:08.774Z,87
2023-04-12T06:54:09.117Z,87
2023-04-12T06:55:08.304Z,87
2023-04-12T06:56:08.628Z,87
2023-04-12T06:57:08.040Z,87
2023-04-12T06:58:08.393Z,87
2023-04-12T06:59:08.770Z,87
2023-04-12T07:00:09.093Z,87
2023-04-12T07:01:08.455Z,87
2023-04-12T07:02:08.727Z,87
2023-04-12T07:03:09.214Z,87
2023-04-12T07:04:08.350Z,87
2023-04-12T07:05:08.614Z,87
2023-04-12T07:06:29.223Z,87
2023-04-12T07:08:09.122Z,87
2023-04-12T07:09:08.484Z,87
2023-04-12T07:10:08.753Z,87
2023-04-12T07:11:24.573Z,87
2023-04-12T07:13:08.452Z,87
2023-04-12T07:14:09.045Z,87
2023-04-12T07:16:08.821Z,87
2023-04-12T07:17:08.995Z,87
2023-04-12T07:18:08.307Z,87
2023-04-12T07:19:08.521Z,87
2023-04-12T07:20:08.815Z,87
2023-04-12T07:21:08.829Z,87
2023-04-12T07:22:09.106Z,87
2023-04-12T07:23:08.287Z,87
2023-04-12T07:24:08.659Z,87
2023-04-12T07:25:08.995Z,86
2023-04-12T07:26:08.198Z,86
2023-04-12T07:27:08.566Z,86
2023-04-12T07:28:11.354Z,86
2023-04-12T07:29:08.034Z,86
2023-04-12T07:30:08.547Z,87
2023-04-12T07:32:08.974Z,87
2023-04-12T07:33:23.057Z,87
2023-04-12T07:35:08.698Z,87
2023-04-12T07:36:08.573Z,87
2023-04-12T07:37:08.685Z,87
2023-04-12T07:38:09.027Z,87
2023-04-12T07:39:08.381Z,87
2023-04-12T07:40:08.861Z,87
2023-04-12T07:41:08.676Z,87
2023-04-12T07:46:08.876Z,87
2023-04-12T07:47:08.579Z,86
2023-04-12T07:48:09.135Z,86
2023-04-12T07:49:08.246Z,87
2023-04-12T07:50:08.555Z,86
2023-04-12T07:51:08.393Z,86
2023-04-12T07:52:08.596Z,86
2023-04-12T07:53:08.941Z,86
2023-04-12T07:54:08.079Z,86
2023-04-12T07:55:08.376Z,86
2023-04-12T07:56:08.450Z,86
2023-04-12T07:57:09.103Z,86
2023-04-12T07:58:08.313Z,86
2023-04-12T07:59:08.650Z,86
2023-04-12T08:00:09.128Z,85
2023-04-12T08:01:08.866Z,85
2023-04-12T08:02:09.322Z,85
2023-04-12T08:05:09.151Z,85
2023-04-12T08:08:08.179Z,85
2023-04-12T08:09:08.458Z,85
2023-04-12T08:10:08.570Z,85
2023-04-12T08:11:08.381Z,84
2023-04-12T08:13:08.874Z,84
2023-04-12T08:14:09.011Z,84
2023-04-12T08:15:08.088Z,84
2023-04-12T08:16:08.624Z,84
2023-04-12T08:17:08.957Z,84
2023-04-12T08:18:08.130Z,84
2023-04-12T08:19:08.273Z,84
2023-04-12T08:20:08.700Z,84
2023-04-12T08:21:08.845Z,84
2023-04-12T08:22:07.954Z,84
2023-04-12T08:23:08.468Z,84
2023-04-12T08:24:08.754Z,84
2023-04-12T08:25:08.996Z,84
2023-04-12T08:26:08.320Z,84
2023-04-12T08:27:08.585Z,84
2023-04-12T08:28:08.918Z,84
2023-04-12T08:29:09.046Z,84
2023-04-12T08:30:08.155Z,84
2023-04-12T08:31:08.657Z,83
2023-04-12T08:32:08.511Z,83
2023-04-12T08:33:09.128Z,83
2023-04-12T08:34:09.287Z,83
2023-04-12T08:38:09.097Z,83
2023-04-12T08:39:08.942Z,83
2023-04-12T08:40:08.373Z,83
2023-04-12T08:41:08.777Z,83
2023-04-12T08:42:09.006Z,83
2023-04-12T08:43:09.867Z,83
2023-04-12T08:44:08.187Z,83
2023-04-12T08:45:08.503Z,83
2023-04-12T08:46:08.884Z,82
2023-04-12T08:47:09.069Z,82
2023-04-12T08:48:08.677Z,82
2023-04-12T08:51:08.424Z,82
2023-04-12T08:52:08.583Z,82
2023-04-12T08:53:08.686Z,82
2023-04-12T08:54:08.907Z,82
2023-04-12T08:55:09.065Z,82
2023-04-12T08:56:08.301Z,82
2023-04-12T08:57:08.669Z,82
2023-04-12T08:58:08.922Z,81
2023-04-12T08:59:08.188Z,81
2023-04-12T09:00:08.773Z,81
2023-04-12T09:01:08.771Z,81
2023-04-12T09:02:09.515Z,81
2023-04-12T09:03:09.006Z,81
2023-04-12T09:04:10.222Z,81
2023-04-12T09:07:08.429Z,81
2023-04-12T09:08:09.108Z,81
2023-04-12T09:09:10.496Z,81
2023-04-12T09:10:09.145Z,81
2023-04-12T09:13:08.312Z,81
2023-04-12T09:14:08.771Z,81
2023-04-12T09:15:08.646Z,81
2023-04-12T09:16:08.839Z,81
2023-04-12T09:17:09.420Z,81
2023-04-12T09:18:08.580Z,81
2023-04-12T09:19:08.718Z,81
2023-04-12T09:20:09.149Z,81
2023-04-12T09:21:08.849Z,81
2023-04-12T09:22:08.120Z,80
2023-04-12T09:23:08.376Z,80
2023-04-12T09:24:08.982Z,80
2023-04-12T09:25:08.838Z,80
2023-04-12T09:26:08.498Z,80
2023-04-12T09:27:08.699Z,80
2023-04-12T09:28:09.058Z,80
2023-04-12T09:29:08.349Z,80
2023-04-12T09:30:08.419Z,80
2023-04-12T09:31:09.003Z,80
2023-04-12T09:32:09.558Z,80
2023-04-12T09:33:08.346Z,80
2023-04-12T09:34:08.443Z,80
2023-04-12T09:35:08.420Z,80
2023-04-12T09:36:09.112Z,80
2023-04-12T09:37:09.370Z,80
2023-04-12T09:38:08.432Z,80
2023-04-12T09:39:08.827Z,80
2023-04-12T09:42:29.601Z,80
2023-04-12T09:44:08.801Z,80
2023-04-12T09:45:09.071Z,80
2023-04-12T09:46:08.593Z,80
2023-04-12T09:47:08.636Z,80
2023-04-12T09:48:09.164Z,80
2023-04-12T09:49:08.196Z,80
2023-04-12T09:50:08.435Z,80
2023-04-12T09:51:08.672Z,80
2023-04-12T09:52:08.929Z,80
2023-04-12T09:53:08.234Z,80
2023-04-12T09:54:08.409Z,80
2023-04-12T09:55:08.463Z,80
2023-04-12T09:56:08.741Z,80
2023-04-12T09:57:09.145Z,80
2023-04-12T09:58:08.040Z,80
2023-04-12T09:59:08.641Z,80
2023-04-12T10:00:08.753Z,80
2023-04-12T10:01:08.461Z,80
2023-04-12T10:02:08.942Z,80
2023-04-12T10:03:10.072Z,80
2023-04-12T10:04:09.811Z,80
2023-04-12T10:05:08.941Z,80
2023-04-12T10:08:08.082Z,80
2023-04-12T10:09:08.639Z,80
2023-04-12T10:10:08.733Z,80
2023-04-12T10:11:09.033Z,80
2023-04-12T10:12:08.292Z,80
2023-04-12T10:13:08.676Z,80
2023-04-12T10:14:08.663Z,80
2023-04-12T10:15:09.038Z,80
2023-04-12T10:21:09.012Z,80
2023-04-12T10:26:08.512Z,80
2023-04-12T10:27:08.835Z,80
2023-04-12T10:28:09.116Z,80
2023-04-12T10:29:08.336Z,80
2023-04-12T10:30:08.658Z,80
2023-04-12T10:31:09.108Z,80
2023-04-12T10:32:08.798Z,80
2023-04-12T10:33:08.883Z,80
2023-04-12T10:34:09.090Z,79
2023-04-12T10:35:08.450Z,79
2023-04-12T10:36:09.278Z,79
2023-04-12T10:37:08.768Z,79
2023-04-12T10:38:09.073Z,79
2023-04-12T10:41:08.581Z,79
2023-04-12T10:42:08.243Z,79
2023-04-12T10:43:08.438Z,79
2023-04-12T10:44:08.716Z,78
2023-04-12T10:45:08.850Z,78
2023-04-12T10:46:09.247Z,78
2023-04-12T10:47:08.314Z,78
2023-04-12T10:48:08.990Z,78
2023-04-12T10:49:08.666Z,78
2023-04-12T10:50:09.284Z,78
2023-04-12T10:55:08.332Z,77
2023-04-12T10:56:08.777Z,77
2023-04-12T10:57:08.730Z,76
2023-04-12T10:58:09.084Z,76
2023-04-12T10:59:09.075Z,76
2023-04-12T11:00:08.691Z,76
2023-04-12T11:05:09.278Z,75
2023-04-12T11:06:29.907Z,75
2023-04-12T11:08:08.610Z,75
2023-04-12T11:09:08.896Z,75
2023-04-12T11:10:08.216Z,75
2023-04-12T11:11:08.621Z,75
2023-04-12T11:12:11.320Z,75
2023-04-12T11:14:08.449Z,75
2023-04-12T11:15:08.817Z,75
2023-04-12T11:16:09.186Z,75
2023-04-12T11:17:08.494Z,75
2023-04-12T11:18:08.278Z,75
2023-04-12T11:19:08.623Z,75
2023-04-12T11:20:08.954Z,75
2023-04-12T11:25:08.497Z,75
2023-04-12T11:26:08.995Z,75
2023-04-12T11:27:08.086Z,75
2023-04-12T11:28:31.921Z,75
2023-04-12T11:30:08.475Z,75
2023-04-12T11:31:08.525Z,75
2023-04-12T11:32:08.773Z,75
2023-04-12T11:33:08.939Z,75
2023-04-12T11:34:09.047Z,75
2023-04-12T11:35:08.493Z,75
2023-04-12T11:36:09.183Z,75
2023-04-12T11:37:08.355Z,75
2023-04-12T11:38:08.626Z,74
2023-04-12T11:39:08.622Z,74
2023-04-12T11:40:09.029Z,74
2023-04-12T11:41:08.949Z,74
2023-04-12T11:45:20.380Z,74
2023-04-12T11:47:08.959Z,73
2023-04-12T11:48:08.437Z,73
2023-04-12T11:49:08.563Z,73
2023-04-12T11:50:08.847Z,73
2023-04-12T11:51:15.933Z,74
2023-04-12T11:53:08.762Z,74
2023-04-12T11:54:09.194Z,73
2023-04-12T11:55:08.579Z,73
2023-04-12T11:56:08.840Z,73
2023-04-12T11:57:12.162Z,73
2023-04-12T11:58:08.044Z,73
2023-04-12T11:59:08.328Z,73
2023-04-12T12:00:08.800Z,73
2023-04-12T12:02:33.216Z,73
2023-04-12T12:03:16.860Z,73
2023-04-12T12:04:10.570Z,73
2023-04-12T12:05:09.216Z,73
2023-04-12T12:06:09.373Z,73
2023-04-12T12:07:09.542Z,73
2023-04-12T12:08:09.045Z,73
2023-04-12T12:11:14.842Z,73
2023-04-12T12:14:08.710Z,72
2023-04-12T12:15:08.745Z,72
2023-04-12T12:16:08.601Z,72
2023-04-12T12:17:08.996Z,72
2023-04-12T12:18:09.044Z,72
2023-04-12T12:19:08.287Z,73
2023-04-12T12:20:08.419Z,73
2023-04-12T12:21:08.914Z,73
2023-04-12T12:22:08.285Z,73
2023-04-12T12:23:08.315Z,73
2023-04-12T12:24:08.870Z,73
2023-04-12T12:25:09.153Z,73
2023-04-12T12:26:22.872Z,73
2023-04-12T12:28:09.131Z,73
2023-04-12T12:29:09.189Z,73
2023-04-12T12:30:08.468Z,73
2023-04-12T12:31:08.841Z,74
2023-04-12T12:32:08.916Z,74
2023-04-12T12:33:09.390Z,74
2023-04-12T12:34:12.520Z,74
2023-04-12T12:37:08.385Z,74
2023-04-12T12:38:08.744Z,74
2023-04-12T12:39:09.170Z,74
2023-04-12T12:40:08.312Z,74
2023-04-12T12:41:08.757Z,74
2023-04-12T12:42:08.421Z,74
2023-04-12T12:43:08.494Z,74
2023-04-12T12:44:08.770Z,74
2023-04-12T12:45:09.061Z,74
2023-04-12T12:46:08.845Z,74
2023-04-12T12:47:20.136Z,74
2023-04-12T12:49:08.676Z,74
2023-04-12T12:50:08.883Z,74
2023-04-12T12:51:08.904Z,74
2023-04-12T12:52:09.111Z,74
2023-04-12T12:53:08.282Z,74
2023-04-12T12:54:08.206Z,74
2023-04-12T12:55:08.545Z,74
2023-04-12T12:56:08.242Z,74
2023-04-12T12:57:08.706Z,74
2023-04-12T12:58:12.747Z,74
2023-04-12T13:01:08.721Z,74
2023-04-12T13:02:09.113Z,74
2023-04-12T13:03:09.035Z,74
2023-04-12T13:04:08.497Z,74
2023-04-12T13:05:10.947Z,74
2023-04-12T13:06:08.803Z,75
2023-04-12T13:07:09.265Z,74
2023-04-12T13:08:08.071Z,74
2023-04-12T13:09:08.601Z,75
2023-04-12T13:10:08.559Z,75
2023-04-12T13:11:08.838Z,75
2023-04-12T13:12:08.040Z,75
2023-04-12T13:13:08.312Z,74
2023-04-12T13:14:08.552Z,74
2023-04-12T13:15:28.915Z,74
2023-04-12T13:17:08.869Z,75
2023-04-12T13:18:09.130Z,75
2023-04-12T13:19:08.407Z,75
2023-04-12T13:20:08.717Z,75
2023-04-12T13:21:08.789Z,75
2023-04-12T13:22:08.953Z,75
2023-04-12T13:23:08.265Z,75
2023-04-12T13:24:08.526Z,75
2023-04-12T13:25:08.705Z,75
2023-04-12T13:26:08.844Z,75
2023-04-12T13:27:08.209Z,75
2023-04-12T13:28:08.496Z,76
2023-04-12T13:29:08.620Z,76
2023-04-12T13:30:08.774Z,76
2023-04-12T13:31:08.440Z,76
2023-04-12T13:32:08.722Z,76
2023-04-12T13:33:09.135Z,76
2023-04-12T13:34:09.039Z,76
2023-04-12T13:35:08.472Z,76
2023-04-12T13:36:09.209Z,76
2023-04-12T13:37:08.554Z,76
2023-04-12T13:38:08.661Z,76
2023-04-12T13:39:09.055Z,76
2023-04-12T13:40:08.343Z,76
2023-04-12T13:41:08.794Z,76
2023-04-12T13:47:08.421Z,76
2023-04-12T13:48:09.065Z,76
2023-04-12T13:50:08.600Z,77
2023-04-12T13:51:08.884Z,77
2023-04-12T13:52:08.711Z,77
2023-04-12T13:53:09.192Z,77
2023-04-12T13:54:08.292Z,77
2023-04-12T13:55:08.691Z,77
2023-04-12T13:56:08.587Z,77
2023-04-12T13:57:09.159Z,77
2023-04-12T13:58:08.148Z,77
2023-04-12T13:59:08.449Z,77
2023-04-12T14:00:08.856Z,77
2023-04-12T14:01:09.290Z,77
2023-04-12T14:02:09.587Z,77
2023-04-12T14:05:08.710Z,77
2023-04-12T14:08:08.268Z,78
2023-04-12T14:09:08.493Z,78
2023-04-12T14:10:08.978Z,78
2023-04-12T14:12:08.104Z,78
2023-04-12T14:13:08.454Z,78
2023-04-12T14:14:08.567Z,78
2023-04-12T14:16:08.934Z,78
2023-04-12T14:17:08.243Z,78
2023-04-12T14:18:08.621Z,78
2023-04-12T14:19:09.202Z,78
2023-04-12T14:22:08.635Z,78
2023-04-12T14:23:12.066Z,78
2023-04-12T14:26:08.514Z,78
2023-04-12T14:27:09.088Z,78
2023-04-12T14:28:08.873Z,78
2023-04-12T14:29:08.231Z,78
2023-04-12T14:30:08.432Z,78
2023-04-12T14:31:12.411Z,78
2023-04-12T14:32:08.715Z,78
2023-04-12T14:33:09.321Z,78
2023-04-12T14:37:08.107Z,77
2023-04-12T14:38:08.443Z,77
2023-04-12T14:39:14.016Z,77
2023-04-12T14:41:09.106Z,77
2023-04-12T14:42:08.393Z,77
2023-04-12T14:43:08.513Z,77
2023-04-12T14:44:08.759Z,77
2023-04-12T14:45:08.348Z,77
2023-04-12T14:49:08.240Z,77
2023-04-12T14:50:08.744Z,77
2023-04-12T14:51:08.211Z,77
2023-04-12T14:52:08.520Z,77
2023-04-12T14:53:08.986Z,77
2023-04-12T14:54:08.287Z,77
2023-04-12T14:55:08.551Z,76
2023-04-12T14:56:09.119Z,76
2023-04-12T14:57:08.352Z,76
2023-04-12T14:58:08.707Z,76
2023-04-12T14:59:08.914Z,76
2023-04-12T15:00:07.976Z,76
2023-04-12T15:01:08.650Z,76
2023-04-12T15:05:09.349Z,76
2023-04-12T15:06:08.538Z,76
2023-04-12T15:07:08.647Z,76
2023-04-12T15:08:08.763Z,76
2023-04-12T15:09:10.041Z,76
2023-04-12T15:10:08.354Z,76
2023-04-12T15:11:08.637Z,76
2023-04-12T15:15:10.751Z,76
2023-04-12T15:19:23.605Z,76
2023-04-12T15:21:10.611Z,76
2023-04-12T15:22:08.725Z,76
2023-04-12T15:23:08.923Z,76
2023-04-12T15:24:08.203Z,76
2023-04-12T15:25:08.791Z,76
2023-04-12T15:27:12.279Z,76
2023-04-12T15:28:08.792Z,76
2023-04-12T15:32:08.561Z,76
2023-04-12T15:33:08.875Z,76
2023-04-12T15:35:29.268Z,76
2023-04-12T15:36:08.836Z,76
2023-04-12T15:37:08.283Z,76
2023-04-12T15:38:08.587Z,76
2023-04-12T15:39:08.712Z,76
2023-04-12T15:40:09.064Z,76
2023-04-12T15:41:08.888Z,76
2023-04-12T15:42:08.010Z,76
2023-04-12T15:43:08.493Z,76
2023-04-12T15:46:08.818Z,75
2023-04-12T15:47:17.532Z,75
2023-04-12T15:49:08.685Z,75
2023-04-12T15:50:09.198Z,75
2023-04-12T15:51:08.199Z,75
2023-04-12T15:52:08.440Z,75
2023-04-12T15:53:08.761Z,75
2023-04-12T15:54:09.089Z,75
2023-04-12T15:55:08.639Z,75
2023-04-12T15:56:08.927Z,75
2023-04-12T15:57:09.039Z,75
2023-04-12T15:58:08.227Z,75
2023-04-12T15:59:08.591Z,75
2023-04-12T16:00:08.631Z,75
2023-04-12T16:01:08.908Z,75
2023-04-12T16:02:09.428Z,75
2023-04-12T16:03:08.576Z,75
2023-04-12T16:04:09.625Z,75
2023-04-12T16:06:08.539Z,75
2023-04-12T16:07:08.779Z,75
2023-04-12T16:08:08.903Z,75
2023-04-12T16:09:08.035Z,75
2023-04-12T16:10:08.444Z,75
2023-04-12T16:11:08.119Z,75
2023-04-12T16:12:08.363Z,75
2023-04-12T16:15:08.082Z,75
2023-04-12T16:16:08.707Z,75
2023-04-12T16:18:09.368Z,75
2023-04-12T16:19:08.304Z,75
2023-04-12T16:20:08.345Z,75
2023-04-12T16:21:08.661Z,75
2023-04-12T16:22:08.830Z,75
2023-04-12T16:23:08.228Z,75
2023-04-12T16:24:08.602Z,75
2023-04-12T16:25:09.098Z,75
2023-04-12T16:26:08.158Z,75
2023-04-12T16:27:08.331Z,75
2023-04-12T16:28:08.635Z,75
2023-04-12T16:29:08.971Z,75
2023-04-12T16:30:09.187Z,75
2023-04-12T16:31:08.559Z,75
2023-04-12T16:32:08.726Z,75
2023-04-12T16:33:09.384Z,75
2023-04-12T16:34:08.161Z,75
2023-04-12T16:35:08.590Z,75
2023-04-12T16:36:08.704Z,75
2023-04-12T16:37:08.890Z,75
2023-04-12T16:38:09.122Z,75
2023-04-12T16:39:08.270Z,75
2023-04-12T16:40:08.482Z,75
2023-04-12T16:41:08.749Z,75
2023-04-12T16:42:08.766Z,75
2023-04-12T16:43:08.919Z,75
2023-04-12T16:44:08.256Z,75
2023-04-12T16:45:08.603Z,75
2023-04-12T16:46:08.463Z,75
2023-04-12T16:47:08.996Z,75
2023-04-12T16:48:09.330Z,75
2023-04-12T16:49:08.273Z,75
2023-04-12T16:50:08.497Z,75
2023-04-12T16:51:08.655Z,75
2023-04-12T16:52:08.812Z,75
2023-04-12T16:58:08.180Z,75
2023-04-12T16:59:08.332Z,75
2023-04-12T17:00:08.711Z,75
2023-04-12T17:01:08.548Z,75
2023-04-12T17:03:08.332Z,75
2023-04-12T17:04:09.738Z,75
2023-04-12T17:05:08.924Z,75
2023-04-12T17:07:09.080Z,75
2023-04-12T17:08:08.268Z,75
2023-04-12T17:09:08.554Z,75
2023-04-12T17:10:08.733Z,75
2023-04-12T17:11:09.056Z,75
2023-04-12T17:12:08.172Z,75
2023-04-12T17:13:08.519Z,75
2023-04-12T17:14:08.666Z,75
2023-04-12T17:15:09.063Z,75
2023-04-12T17:16:08.088Z,75
2023-04-12T17:17:11.654Z,75
2023-04-12T17:18:08.846Z,75
2023-04-12T17:19:10.503Z,75
2023-04-12T17:21:09.017Z,75
2023-04-12T17:23:08.941Z,75
2023-04-12T17:25:08.884Z,75
2023-04-12T17:26:08.484Z,75
2023-04-12T17:27:08.804Z,75
2023-04-12T17:28:09.457Z,75
2023-04-12T17:31:08.123Z,75
2023-04-12T17:32:08.737Z,75
2023-04-12T17:33:08.926Z,75
2023-04-12T17:34:08.233Z,75
2023-04-12T17:35:08.510Z,75
2023-04-12T17:36:13.722Z,75
2023-04-12T17:37:08.403Z,75
2023-04-12T17:38:08.447Z,75
2023-04-12T17:39:09.001Z,76
2023-04-12T17:40:08.880Z,76
2023-04-12T17:41:07.824Z,76
2023-04-12T17:42:08.267Z,76
2023-04-12T17:46:08.840Z,76
2023-04-12T17:47:09.048Z,76
2023-04-12T17:48:08.400Z,76
2023-04-12T17:49:08.474Z,76
2023-04-12T17:50:08.886Z,76
2023-04-12T17:51:08.234Z,76
2023-04-12T17:52:08.434Z,76
2023-04-12T17:53:08.748Z,76
2023-04-12T17:54:08.855Z,76
2023-04-12T17:55:08.257Z,76
2023-04-12T17:56:08.237Z,76
2023-04-12T17:57:08.652Z,76
2023-04-12T17:58:08.786Z,76
2023-04-12T17:59:09.087Z,76
2023-04-12T18:02:08.899Z,76
2023-04-12T18:03:09.366Z,76
2023-04-12T18:04:08.347Z,76
2023-04-12T18:05:08.630Z,77
2023-04-12T18:06:08.825Z,77
2023-04-12T18:07:08.962Z,77
2023-04-12T18:08:08.247Z,77
2023-04-12T18:09:08.521Z,77
2023-04-12T18:10:08.890Z,77
2023-04-12T18:11:08.957Z,77
2023-04-12T18:12:08.336Z,77
2023-04-12T18:13:08.630Z,77
2023-04-12T18:14:08.658Z,77
2023-04-12T18:15:08.933Z,77
2023-04-12T18:16:09.101Z,77
2023-04-12T18:21:08.839Z,77
2023-04-12T18:22:09.178Z,77
2023-04-12T18:23:08.335Z,77
2023-04-12T18:24:08.863Z,77
2023-04-12T18:25:09.009Z,77
2023-04-12T18:26:08.062Z,77
2023-04-12T18:27:08.413Z,77
2023-04-12T18:28:08.565Z,77
2023-04-12T18:29:08.764Z,77
2023-04-12T18:30:09.046Z,78
2023-04-12T18:31:08.450Z,78
2023-04-12T18:32:08.745Z,78
2023-04-12T18:33:08.482Z,78
2023-04-12T18:34:07.657Z,78
2023-04-12T18:35:09.122Z,78
2023-04-12T18:38:08.217Z,78
2023-04-12T18:39:08.898Z,78
2023-04-12T18:40:09.026Z,78
2023-04-12T18:41:08.160Z,78
2023-04-12T18:42:08.395Z,78
2023-04-12T18:43:08.707Z,78
2023-04-12T18:44:08.966Z,78
2023-04-12T18:45:08.210Z,78
2023-04-12T18:46:08.371Z,78
2023-04-12T18:47:09.148Z,78
2023-04-12T18:48:08.979Z,78
2023-04-12T18:49:09.095Z,78
2023-04-12T18:50:08.283Z,78
2023-04-12T18:51:08.775Z,78
2023-04-12T18:52:08.871Z,78
2023-04-12T18:54:08.398Z,78
2023-04-12T18:55:07.447Z,79
2023-04-12T18:56:08.795Z,79
2023-04-12T18:57:08.454Z,79
2023-04-12T18:58:08.577Z,79
2023-04-12T18:59:08.520Z,79
2023-04-12T19:04:08.590Z,79
2023-04-12T19:05:08.580Z,79
2023-04-12T19:06:08.387Z,79
2023-04-12T19:10:08.537Z,79
2023-04-12T19:11:09.090Z,79
2023-04-12T19:12:08.352Z,79
2023-04-12T19:16:09.151Z,79
2023-04-12T19:17:08.280Z,79
2023-04-12T19:18:08.023Z,79
2023-04-12T19:19:08.295Z,79
2023-04-12T19:20:08.778Z,79
2023-04-12T19:23:08.012Z,79
2023-04-12T19:24:08.511Z,79
2023-04-12T19:25:08.780Z,79
2023-04-12T19:26:08.133Z,79
2023-04-12T19:27:08.508Z,79
2023-04-12T19:28:08.318Z,78
2023-04-12T19:29:08.800Z,78
2023-04-12T19:30:08.858Z,78
2023-04-12T19:31:11.854Z,78
2023-04-12T19:33:08.936Z,78
2023-04-12T19:34:08.690Z,78
2023-04-12T19:35:08.296Z,78
2023-04-12T19:36:08.569Z,78
2023-04-12T19:37:08.813Z,78
2023-04-12T19:38:08.943Z,78
2023-04-12T19:39:08.218Z,78
2023-04-12T19:40:08.335Z,78
2023-04-12T19:41:08.574Z,78
2023-04-12T19:42:08.893Z,78
2023-04-12T19:43:09.024Z,78
2023-04-12T19:44:08.175Z,78
2023-04-12T19:45:08.508Z,78
2023-04-12T19:46:08.484Z,78
2023-04-12T19:47:08.792Z,77
2023-04-12T19:48:09.217Z,77
2023-04-12T19:53:08.375Z,78
2023-04-12T19:56:08.136Z,78
2023-04-12T19:57:08.752Z,78
2023-04-12T19:58:08.574Z,77
2023-04-12T19:59:08.407Z,77
2023-04-12T20:00:08.737Z,77
2023-04-12T20:01:08.632Z,77
2023-04-12T20:02:09.044Z,77
2023-04-12T20:03:08.150Z,77
2023-04-12T20:04:08.414Z,77
2023-04-12T20:05:07.992Z,77
2023-04-12T20:06:08.397Z,77
2023-04-12T20:11:08.352Z,77
2023-04-12T20:12:08.702Z,77
2023-04-12T20:13:08.951Z,78
2023-04-12T20:14:08.144Z,77
2023-04-12T20:15:08.173Z,77
2023-04-12T20:16:08.659Z,77
2023-04-12T20:17:09.067Z,77
2023-04-12T20:18:08.387Z,78
2023-04-12T20:19:08.400Z,78
2023-04-12T20:20:08.726Z,78
2023-04-12T20:21:08.311Z,78
2023-04-12T20:22:08.642Z,78
2023-04-12T20:23:08.955Z,78
2023-04-12T20:24:08.283Z,78
2023-04-12T20:25:08.455Z,78
2023-04-12T20:26:07.520Z,79
2023-04-12T20:27:08.535Z,79
2023-04-12T20:28:09.180Z,79
2023-04-12T20:29:07.408Z,79
2023-04-12T20:30:08.662Z,79
2023-04-12T20:31:09.178Z,79
2023-04-12T20:32:08.338Z,79
2023-04-12T20:33:08.964Z,79
2023-04-12T20:36:08.438Z,80
2023-04-12T20:37:08.439Z,80
2023-04-12T20:40:08.417Z,79
2023-04-12T20:41:08.584Z,80
2023-04-12T20:42:08.949Z,80
2023-04-12T20:43:09.199Z,80
2023-04-12T20:44:08.400Z,80
2023-04-12T20:45:08.458Z,80
2023-04-12T20:46:08.307Z,80
2023-04-12T20:47:08.346Z,80
2023-04-12T20:48:09.290Z,80
2023-04-12T20:49:08.261Z,80
2023-04-12T20:50:08.921Z,80
2023-04-12T20:51:08.224Z,81
2023-04-12T20:52:08.618Z,81
2023-04-12T20:53:09.005Z,81
2023-04-12T20:54:07.894Z,81
2023-04-12T20:55:08.328Z,81
2023-04-12T20:56:09.006Z,81
2023-04-12T20:58:12.028Z,81
2023-04-12T21:01:08.795Z,81
2023-04-12T21:02:09.630Z,81
2023-04-12T21:03:08.891Z,81
2023-04-12T21:04:09.023Z,81
2023-04-12T21:05:08.673Z,81
2023-04-12T21:06:08.795Z,81
2023-04-12T21:11:08.340Z,82
2023-04-12T21:12:08.624Z,82
2023-04-12T21:13:08.679Z,82
2023-04-12T21:14:08.891Z,82
2023-04-12T21:15:08.439Z,82
2023-04-12T21:16:08.878Z,82
2023-04-12T21:17:08.739Z,82
2023-04-12T21:18:09.002Z,82
2023-04-12T21:19:08.843Z,82
2023-04-12T21:22:08.567Z,82
2023-04-12T21:23:11.532Z,82
2023-04-12T21:26:08.975Z,83
2023-04-12T21:27:08.156Z,83
2023-04-12T21:28:08.460Z,83
2023-04-12T21:29:08.615Z,83
2023-04-12T21:30:09.012Z,83
2023-04-12T21:31:08.106Z,83
2023-04-12T21:32:09.194Z,83
2023-04-12T21:33:08.644Z,83
2023-04-12T21:34:08.827Z,83
2023-04-12T21:35:08.078Z,83
2023-04-12T21:36:08.274Z,83
2023-04-12T21:37:08.677Z,83
2023-04-12T21:38:08.933Z,83
2023-04-12T21:41:08.272Z,83
2023-04-12T21:42:08.488Z,83